sensor_id;sensor_type;location;lat;lon;timestamp;pressure;altitude;pressure_sealevel;temperature;humidity
61026;BME280;46911;32.650;-16.902;2023-02-13T09:39:12;101900.28;;;19.43;71.05
61026;BME280;46911;32.650;-16.902;2023-02-13T09:41:22;101902.75;;;19.77;69.98
61026;BME280;46911;32.650;-16.902;2023-02-13T09:43:29;101909.91;;;20.09;69.46
61026;BME280;46911;32.650;-16.902;2023-02-13T09:45:31;101887.56;;;20.26;67.53
61026;BME280;46911;32.650;-16.902;2023-02-13T09:47:40;101902.44;;;20.61;66.71
61026;BME280;46911;32.650;-16.902;2023-02-13T09:49:54;101903.47;;;20.80;65.19
61026;BME280;46911;32.650;-16.902;2023-02-13T09:51:57;101890.06;;;20.88;64.05
61026;BME280;46911;32.650;-16.902;2023-02-13T09:54:02;101913.44;;;21.18;64.18
61026;BME280;46911;32.650;-16.902;2023-02-13T09:56:12;101909.94;;;21.46;61.41
61026;BME280;46911;32.650;-16.902;2023-02-13T10:00:47;101915.97;;;21.97;59.24
61026;BME280;46911;32.650;-16.902;2023-02-13T10:07:41;101898.44;;;21.24;59.21
61026;BME280;46911;32.650;-16.902;2023-02-13T10:10:01;101914.47;;;21.07;60.36
61026;BME280;46911;32.650;-16.902;2023-02-13T10:16:49;101913.06;;;21.51;60.99
61026;BME280;46911;32.650;-16.902;2023-02-13T10:21:27;101907.94;;;22.23;59.04
61026;BME280;46911;32.650;-16.902;2023-02-13T10:23:53;101909.03;;;22.58;57.57
61026;BME280;46911;32.650;-16.902;2023-02-13T10:30:39;101925.69;;;22.73;56.71
61026;BME280;46911;32.650;-16.902;2023-02-13T10:35:28;101895.13;;;21.87;57.97
61026;BME280;46911;32.650;-16.902;2023-02-13T10:37:30;101918.97;;;21.46;58.79
61026;BME280;46911;32.650;-16.902;2023-02-13T10:39:36;101926.16;;;20.98;60.01
61026;BME280;46911;32.650;-16.902;2023-02-13T10:46:50;101935.31;;;19.86;63.33
61026;BME280;46911;32.650;-16.902;2023-02-13T10:51:23;101916.81;;;19.39;65.24
61026;BME280;46911;32.650;-16.902;2023-02-13T10:58:37;101937.66;;;19.49;66.73
61026;BME280;46911;32.650;-16.902;2023-02-13T11:03:04;101953.91;;;19.80;66.80
61026;BME280;46911;32.650;-16.902;2023-02-13T11:05:18;101941.31;;;19.90;66.12
61026;BME280;46911;32.650;-16.902;2023-02-13T11:07:22;101937.03;;;19.87;65.04
61026;BME280;46911;32.650;-16.902;2023-02-13T11:09:25;101960.13;;;19.49;64.82
61026;BME280;46911;32.650;-16.902;2023-02-13T11:11:33;101963.47;;;18.99;66.86
61026;BME280;46911;32.650;-16.902;2023-02-13T11:13:35;101962.63;;;18.99;68.23
61026;BME280;46911;32.650;-16.902;2023-02-13T11:15:38;101965.63;;;19.17;67.92
61026;BME280;46911;32.650;-16.902;2023-02-13T11:17:40;101971.13;;;18.94;69.16
61026;BME280;46911;32.650;-16.902;2023-02-13T11:19:48;101964.72;;;18.84;69.40
61026;BME280;46911;32.650;-16.902;2023-02-13T11:22:01;101971.25;;;18.93;69.95
61026;BME280;46911;32.650;-16.902;2023-02-13T11:24:16;101970.56;;;19.12;69.81
61026;BME280;46911;32.650;-16.902;2023-02-13T11:26:31;101959.50;;;19.15;69.57
61026;BME280;46911;32.650;-16.902;2023-02-13T11:28:43;101953.22;;;19.35;69.12
61026;BME280;46911;32.650;-16.902;2023-02-13T11:30:46;101971.72;;;19.94;68.16
61026;BME280;46911;32.650;-16.902;2023-02-13T11:35:32;101951.38;;;21.57;60.85
61026;BME280;46911;32.650;-16.902;2023-02-13T11:37:35;101944.28;;;22.50;59.00
61026;BME280;46911;32.650;-16.902;2023-02-13T11:39:39;101957.28;;;23.10;55.61
61026;BME280;46911;32.650;-16.902;2023-02-13T11:41:45;101937.78;;;22.97;53.29
61026;BME280;46911;32.650;-16.902;2023-02-13T11:46:16;101945.78;;;22.80;53.41
61026;BME280;46911;32.650;-16.902;2023-02-13T11:48:21;101938.59;;;22.43;54.20
61026;BME280;46911;32.650;-16.902;2023-02-13T11:50:33;101947.25;;;22.29;54.02
61026;BME280;46911;32.650;-16.902;2023-02-13T11:52:36;101937.53;;;21.98;54.44
61026;BME280;46911;32.650;-16.902;2023-02-13T11:54:41;101953.75;;;21.90;55.55
61026;BME280;46911;32.650;-16.902;2023-02-13T11:56:51;101934.06;;;21.68;55.74
61026;BME280;46911;32.650;-16.902;2023-02-13T11:59:03;101952.66;;;21.73;56.40
61026;BME280;46911;32.650;-16.902;2023-02-13T12:05:27;101955.41;;;21.44;56.65
61026;BME280;46911;32.650;-16.902;2023-02-13T12:07:33;101960.69;;;21.35;57.03
61026;BME280;46911;32.650;-16.902;2023-02-13T12:09:37;101956.13;;;21.16;56.97
61026;BME280;46911;32.650;-16.902;2023-02-13T12:11:49;101964.72;;;21.02;57.72
61026;BME280;46911;32.650;-16.902;2023-02-13T12:13:53;101936.56;;;20.73;57.90
61026;BME280;46911;32.650;-16.902;2023-02-13T12:16:01;101950.69;;;20.67;58.46
61026;BME280;46911;32.650;-16.902;2023-02-13T12:18:09;101954.78;;;20.62;58.31
61026;BME280;46911;32.650;-16.902;2023-02-13T12:20:18;101943.22;;;20.50;59.00
61026;BME280;46911;32.650;-16.902;2023-02-13T12:32:51;101943.97;;;19.17;67.73
61026;BME280;46911;32.650;-16.902;2023-02-13T12:39:58;101922.00;;;20.84;63.33
61026;BME280;46911;32.650;-16.902;2023-02-13T12:44:41;101927.69;;;21.97;59.79
61026;BME280;46911;32.650;-16.902;2023-02-13T12:49:01;101923.91;;;24.05;55.27
61026;BME280;46911;32.650;-16.902;2023-02-13T12:53:47;101908.91;;;26.15;48.74
61026;BME280;46911;32.650;-16.902;2023-02-13T12:56:10;101885.81;;;26.96;47.29
61026;BME280;46911;32.650;-16.902;2023-02-13T12:58:40;101896.78;;;27.79;43.99
61026;BME280;46911;32.650;-16.902;2023-02-13T13:08:03;101877.31;;;29.33;38.94
61026;BME280;46911;32.650;-16.902;2023-02-13T13:23:30;101837.50;;;31.67;34.13
61026;BME280;46911;32.650;-16.902;2023-02-13T13:26:04;101841.53;;;31.64;32.83
61026;BME280;46911;32.650;-16.902;2023-02-13T13:28:16;101834.53;;;31.55;33.85
61026;BME280;46911;32.650;-16.902;2023-02-13T13:32:25;101818.00;;;31.55;33.81
61026;BME280;46911;32.650;-16.902;2023-02-13T13:34:30;101829.16;;;32.19;32.62
61026;BME280;46911;32.650;-16.902;2023-02-13T13:36:49;101822.16;;;30.85;34.66
61026;BME280;46911;32.650;-16.902;2023-02-13T13:41:15;101820.84;;;30.61;34.74
61026;BME280;46911;32.650;-16.902;2023-02-13T13:43:27;101818.72;;;30.36;35.15
61026;BME280;46911;32.650;-16.902;2023-02-13T13:45:53;101795.66;;;31.04;34.21
61026;BME280;46911;32.650;-16.902;2023-02-13T13:50:35;101799.47;;;31.03;34.04
61026;BME280;46911;32.650;-16.902;2023-02-13T13:52:38;101812.38;;;31.16;34.28
61026;BME280;46911;32.650;-16.902;2023-02-13T13:54:42;101790.19;;;31.63;33.28
61026;BME280;46911;32.650;-16.902;2023-02-13T13:58:55;101786.13;;;30.80;34.35
61026;BME280;46911;32.650;-16.902;2023-02-13T14:03:23;101798.16;;;30.32;35.71
61026;BME280;46911;32.650;-16.902;2023-02-13T14:05:32;101796.84;;;31.35;34.88
61026;BME280;46911;32.650;-16.902;2023-02-13T14:07:36;101789.25;;;30.97;33.48
61026;BME280;46911;32.650;-16.902;2023-02-13T14:09:41;101786.97;;;30.81;34.32
61026;BME280;46911;32.650;-16.902;2023-02-13T14:11:43;101788.00;;;28.94;37.55
61026;BME280;46911;32.650;-16.902;2023-02-13T14:13:46;101775.44;;;28.28;38.71
61026;BME280;46911;32.650;-16.902;2023-02-13T14:15:48;101793.63;;;27.78;39.24
61026;BME280;46911;32.650;-16.902;2023-02-13T14:17:50;101781.75;;;28.29;39.22
61026;BME280;46911;32.650;-16.902;2023-02-13T14:19:52;101776.97;;;27.94;39.46
61026;BME280;46911;32.650;-16.902;2023-02-13T14:24:32;101769.25;;;28.98;37.63
61026;BME280;46911;32.650;-16.902;2023-02-13T14:26:37;101765.50;;;29.05;37.68
61026;BME280;46911;32.650;-16.902;2023-02-13T14:28:42;101754.56;;;27.09;40.46
61026;BME280;46911;32.650;-16.902;2023-02-13T14:31:06;101754.53;;;28.05;39.84
61026;BME280;46911;32.650;-16.902;2023-02-13T14:33:25;101736.56;;;29.10;36.94
61026;BME280;46911;32.650;-16.902;2023-02-13T14:35:36;101755.59;;;29.53;35.59
61026;BME280;46911;32.650;-16.902;2023-02-13T14:37:50;101753.28;;;28.58;37.53
61026;BME280;46911;32.650;-16.902;2023-02-13T14:42:24;101731.25;;;27.80;39.29
61026;BME280;46911;32.650;-16.902;2023-02-13T14:46:47;101761.25;;;27.66;40.15
61026;BME280;46911;32.650;-16.902;2023-02-13T14:48:58;101755.44;;;27.39;40.02
61026;BME280;46911;32.650;-16.902;2023-02-13T14:51:02;101754.06;;;27.65;39.32
61026;BME280;46911;32.650;-16.902;2023-02-13T14:53:15;101747.41;;;27.75;39.17
61026;BME280;46911;32.650;-16.902;2023-02-13T14:55:29;101760.66;;;27.71;39.62
61026;BME280;46911;32.650;-16.902;2023-02-13T14:57:44;101747.72;;;29.01;37.45
61026;BME280;46911;32.650;-16.902;2023-02-13T14:59:49;101763.13;;;28.96;36.94
61026;BME280;46911;32.650;-16.902;2023-02-13T15:01:58;101749.00;;;29.05;36.20
61026;BME280;46911;32.650;-16.902;2023-02-13T15:04:09;101742.94;;;28.82;38.06
61026;BME280;46911;32.650;-16.902;2023-02-13T15:06:25;101748.59;;;27.87;39.27
61026;BME280;46911;32.650;-16.902;2023-02-13T15:08:34;101740.44;;;29.22;36.88
61026;BME280;46911;32.650;-16.902;2023-02-13T15:10:44;101736.56;;;30.13;35.41
61026;BME280;46911;32.650;-16.902;2023-02-13T15:12:55;101714.09;;;30.70;33.86
61026;BME280;46911;32.650;-16.902;2023-02-13T15:14:58;101733.16;;;30.71;33.66
61026;BME280;46911;32.650;-16.902;2023-02-13T15:17:20;101745.59;;;31.01;33.46
61026;BME280;46911;32.650;-16.902;2023-02-13T15:19:23;101729.94;;;29.94;35.01
61026;BME280;46911;32.650;-16.902;2023-02-13T15:21:28;101749.47;;;31.52;33.14
61026;BME280;46911;32.650;-16.902;2023-02-13T15:23:33;101738.56;;;31.25;33.51
61026;BME280;46911;32.650;-16.902;2023-02-13T15:27:42;101746.03;;;30.98;33.43
61026;BME280;46911;32.650;-16.902;2023-02-13T15:32:18;101753.88;;;30.07;34.92
61026;BME280;46911;32.650;-16.902;2023-02-13T15:34:23;101754.16;;;30.59;34.67
61026;BME280;46911;32.650;-16.902;2023-02-13T15:36:25;101753.75;;;29.67;35.21
61026;BME280;46911;32.650;-16.902;2023-02-13T15:38:35;101744.66;;;29.66;35.34
61026;BME280;46911;32.650;-16.902;2023-02-13T15:40:40;101751.97;;;30.88;33.88
61026;BME280;46911;32.650;-16.902;2023-02-13T15:42:42;101746.50;;;30.34;34.72
61026;BME280;46911;32.650;-16.902;2023-02-13T15:44:46;101757.50;;;30.81;33.89
61026;BME280;46911;32.650;-16.902;2023-02-13T15:46:50;101752.81;;;30.01;35.61
61026;BME280;46911;32.650;-16.902;2023-02-13T15:48:54;101762.50;;;29.00;36.53
61026;BME280;46911;32.650;-16.902;2023-02-13T15:50:57;101745.47;;;28.83;37.08
61026;BME280;46911;32.650;-16.902;2023-02-13T15:52:59;101739.06;;;29.04;36.52
61026;BME280;46911;32.650;-16.902;2023-02-13T15:55:02;101737.00;;;29.55;35.76
61026;BME280;46911;32.650;-16.902;2023-02-13T15:57:08;101744.31;;;28.99;36.91
61026;BME280;46911;32.650;-16.902;2023-02-13T15:59:11;101751.22;;;28.88;37.34
61026;BME280;46911;32.650;-16.902;2023-02-13T16:01:16;101745.94;;;28.59;37.34
61026;BME280;46911;32.650;-16.902;2023-02-13T16:03:18;101754.91;;;26.76;40.99
61026;BME280;46911;32.650;-16.902;2023-02-13T16:05:20;101746.72;;;25.83;43.32
61026;BME280;46911;32.650;-16.902;2023-02-13T16:07:21;101765.03;;;26.52;42.08
61026;BME280;46911;32.650;-16.902;2023-02-13T16:09:33;101759.72;;;26.13;42.18
61026;BME280;46911;32.650;-16.902;2023-02-13T16:11:39;101746.06;;;26.74;41.32
61026;BME280;46911;32.650;-16.902;2023-02-13T16:16:08;101754.63;;;26.71;40.63
61026;BME280;46911;32.650;-16.902;2023-02-13T16:18:19;101757.41;;;27.16;40.82
61026;BME280;46911;32.650;-16.902;2023-02-13T16:20:26;101757.19;;;27.62;39.35
61026;BME280;46911;32.650;-16.902;2023-02-13T16:22:31;101758.66;;;27.80;39.36
61026;BME280;46911;32.650;-16.902;2023-02-13T16:24:37;101755.25;;;27.41;40.19
61026;BME280;46911;32.650;-16.902;2023-02-13T16:26:41;101741.34;;;27.43;39.86
61026;BME280;46911;32.650;-16.902;2023-02-13T16:28:48;101737.28;;;27.75;39.46
61026;BME280;46911;32.650;-16.902;2023-02-13T16:30:56;101751.16;;;27.07;40.25
61026;BME280;46911;32.650;-16.902;2023-02-13T16:35:38;101754.22;;;27.42;40.05
61026;BME280;46911;32.650;-16.902;2023-02-13T16:37:52;101751.19;;;27.37;40.89
61026;BME280;46911;32.650;-16.902;2023-02-13T16:39:53;101734.06;;;26.90;41.45
61026;BME280;46911;32.650;-16.902;2023-02-13T16:41:58;101752.94;;;25.69;43.96
61026;BME280;46911;32.650;-16.902;2023-02-13T16:44:03;101757.16;;;26.34;43.22
61026;BME280;46911;32.650;-16.902;2023-02-13T16:46:30;101757.41;;;26.63;42.67
61026;BME280;46911;32.650;-16.902;2023-02-13T16:48:31;101753.09;;;26.07;43.66
61026;BME280;46911;32.650;-16.902;2023-02-13T16:50:32;101757.97;;;25.57;45.12
61026;BME280;46911;32.650;-16.902;2023-02-13T16:52:35;101742.34;;;24.70;46.33
61026;BME280;46911;32.650;-16.902;2023-02-13T16:54:47;101725.28;;;24.51;46.82
61026;BME280;46911;32.650;-16.902;2023-02-13T16:56:59;101746.44;;;24.66;46.32
61026;BME280;46911;32.650;-16.902;2023-02-13T16:59:25;101746.09;;;24.36;47.36
61026;BME280;46911;32.650;-16.902;2023-02-13T17:01:32;101728.34;;;23.99;48.18
61026;BME280;46911;32.650;-16.902;2023-02-13T17:03:35;101751.59;;;23.77;49.05
61026;BME280;46911;32.650;-16.902;2023-02-13T17:05:39;101725.00;;;23.62;49.48
61026;BME280;46911;32.650;-16.902;2023-02-13T17:07:45;101748.97;;;24.01;49.72
61026;BME280;46911;32.650;-16.902;2023-02-13T17:09:59;101731.25;;;24.55;47.82
61026;BME280;46911;32.650;-16.902;2023-02-13T17:12:00;101748.56;;;23.88;49.88
61026;BME280;46911;32.650;-16.902;2023-02-13T17:14:01;101754.09;;;24.21;49.28
61026;BME280;46911;32.650;-16.902;2023-02-13T17:16:08;101730.59;;;23.52;50.44
61026;BME280;46911;32.650;-16.902;2023-02-13T17:18:09;101758.00;;;24.10;49.65
61026;BME280;46911;32.650;-16.902;2023-02-13T17:20:16;101738.06;;;24.26;48.64
61026;BME280;46911;32.650;-16.902;2023-02-13T17:24:30;101725.94;;;22.49;53.24
61026;BME280;46911;32.650;-16.902;2023-02-13T17:26:31;101749.06;;;22.53;54.07
61026;BME280;46911;32.650;-16.902;2023-02-13T17:28:37;101727.41;;;21.89;55.09
61026;BME280;46911;32.650;-16.902;2023-02-13T17:30:38;101752.19;;;22.40;53.53
61026;BME280;46911;32.650;-16.902;2023-02-13T17:32:39;101734.31;;;22.20;54.34
61026;BME280;46911;32.650;-16.902;2023-02-13T17:34:42;101739.81;;;21.92;55.56
61026;BME280;46911;32.650;-16.902;2023-02-13T17:36:46;101744.34;;;22.01;56.04
61026;BME280;46911;32.650;-16.902;2023-02-13T17:38:49;101740.69;;;22.47;53.82
61026;BME280;46911;32.650;-16.902;2023-02-13T17:40:51;101748.53;;;22.14;55.23
61026;BME280;46911;32.650;-16.902;2023-02-13T17:42:53;101749.41;;;22.14;55.68
61026;BME280;46911;32.650;-16.902;2023-02-13T17:44:58;101739.56;;;21.39;58.23
61026;BME280;46911;32.650;-16.902;2023-02-13T17:46:58;101733.91;;;20.85;59.26
61026;BME280;46911;32.650;-16.902;2023-02-13T17:48:59;101748.94;;;20.50;61.36
61026;BME280;46911;32.650;-16.902;2023-02-13T17:51:04;101758.22;;;20.18;62.43
61026;BME280;46911;32.650;-16.902;2023-02-13T17:53:19;101736.22;;;19.82;63.82
61026;BME280;46911;32.650;-16.902;2023-02-13T17:55:26;101743.22;;;19.95;63.63
61026;BME280;46911;32.650;-16.902;2023-02-13T17:57:28;101757.19;;;20.00;63.64
61026;BME280;46911;32.650;-16.902;2023-02-13T17:59:33;101762.59;;;19.90;63.82
61026;BME280;46911;32.650;-16.902;2023-02-13T18:01:34;101764.19;;;20.02;63.56
61026;BME280;46911;32.650;-16.902;2023-02-13T18:03:37;101734.47;;;19.71;63.93
61026;BME280;46911;32.650;-16.902;2023-02-13T18:05:42;101742.97;;;19.57;64.39
61026;BME280;46911;32.650;-16.902;2023-02-13T18:07:47;101767.09;;;19.70;64.43
61026;BME280;46911;32.650;-16.902;2023-02-13T18:09:51;101779.50;;;19.72;65.62
61026;BME280;46911;32.650;-16.902;2023-02-13T18:11:52;101780.72;;;19.58;65.22
61026;BME280;46911;32.650;-16.902;2023-02-13T18:13:53;101785.81;;;19.42;65.10
61026;BME280;46911;32.650;-16.902;2023-02-13T18:15:56;101766.63;;;19.24;65.06
61026;BME280;46911;32.650;-16.902;2023-02-13T18:17:59;101765.19;;;19.20;65.40
61026;BME280;46911;32.650;-16.902;2023-02-13T18:20:00;101797.41;;;19.23;65.81
61026;BME280;46911;32.650;-16.902;2023-02-13T18:22:05;101783.91;;;19.02;66.61
61026;BME280;46911;32.650;-16.902;2023-02-13T18:24:09;101776.72;;;18.91;66.55
61026;BME280;46911;32.650;-16.902;2023-02-13T18:26:10;101802.38;;;18.97;67.29
61026;BME280;46911;32.650;-16.902;2023-02-13T18:28:11;101794.81;;;18.79;67.59
61026;BME280;46911;32.650;-16.902;2023-02-13T18:30:18;101791.31;;;18.67;67.79
61026;BME280;46911;32.650;-16.902;2023-02-13T18:32:21;101788.69;;;18.56;68.11
61026;BME280;46911;32.650;-16.902;2023-02-13T18:34:25;101825.50;;;18.57;68.37
61026;BME280;46911;32.650;-16.902;2023-02-13T18:36:28;101828.75;;;18.51;68.43
61026;BME280;46911;32.650;-16.902;2023-02-13T18:38:32;101827.81;;;18.40;68.62
61026;BME280;46911;32.650;-16.902;2023-02-13T18:40:38;101835.69;;;18.32;68.23
61026;BME280;46911;32.650;-16.902;2023-02-13T18:42:42;101833.88;;;18.21;68.36
61026;BME280;46911;32.650;-16.902;2023-02-13T18:44:43;101845.19;;;18.15;69.17
61026;BME280;46911;32.650;-16.902;2023-02-13T18:46:44;101844.47;;;18.02;69.47
61026;BME280;46911;32.650;-16.902;2023-02-13T18:48:50;101844.38;;;17.92;69.52
61026;BME280;46911;32.650;-16.902;2023-02-13T18:50:53;101843.25;;;17.83;69.72
61026;BME280;46911;32.650;-16.902;2023-02-13T18:52:54;101844.09;;;17.72;70.64
61026;BME280;46911;32.650;-16.902;2023-02-13T18:54:55;101846.31;;;17.67;70.73
61026;BME280;46911;32.650;-16.902;2023-02-13T18:56:56;101835.66;;;17.54;71.82
61026;BME280;46911;32.650;-16.902;2023-02-13T18:58:57;101824.72;;;17.45;72.07
61026;BME280;46911;32.650;-16.902;2023-02-13T19:01:26;101855.66;;;17.52;72.48
61026;BME280;46911;32.650;-16.902;2023-02-13T19:03:30;101864.47;;;17.43;72.37
61026;BME280;46911;32.650;-16.902;2023-02-13T19:05:31;101862.25;;;17.36;72.51
61026;BME280;46911;32.650;-16.902;2023-02-13T19:07:32;101863.59;;;17.31;73.08
61026;BME280;46911;32.650;-16.902;2023-02-13T19:09:33;101851.94;;;17.19;73.78
61026;BME280;46911;32.650;-16.902;2023-02-13T19:11:42;101867.66;;;17.25;74.62
61026;BME280;46911;32.650;-16.902;2023-02-13T19:13:44;101861.50;;;17.12;74.86
61026;BME280;46911;32.650;-16.902;2023-02-13T19:15:45;101878.44;;;17.25;74.94
61026;BME280;46911;32.650;-16.902;2023-02-13T19:17:46;101852.41;;;17.13;74.63
61026;BME280;46911;32.650;-16.902;2023-02-13T19:19:47;101882.19;;;17.11;74.98
61026;BME280;46911;32.650;-16.902;2023-02-13T19:21:50;101876.66;;;17.01;75.36
61026;BME280;46911;32.650;-16.902;2023-02-13T19:23:51;101877.34;;;16.92;75.83
61026;BME280;46911;32.650;-16.902;2023-02-13T19:25:53;101883.84;;;16.89;76.10
61026;BME280;46911;32.650;-16.902;2023-02-13T19:27:54;101891.78;;;16.91;76.48
61026;BME280;46911;32.650;-16.902;2023-02-13T19:29:54;101896.25;;;16.79;76.66
61026;BME280;46911;32.650;-16.902;2023-02-13T19:31:55;101900.28;;;16.73;76.82
61026;BME280;46911;32.650;-16.902;2023-02-13T19:33:56;101909.44;;;16.71;77.02
61026;BME280;46911;32.650;-16.902;2023-02-13T19:36:04;101906.59;;;16.61;77.45
61026;BME280;46911;32.650;-16.902;2023-02-13T19:38:11;101913.91;;;16.59;77.84
61026;BME280;46911;32.650;-16.902;2023-02-13T19:40:15;101921.38;;;16.55;77.73
61026;BME280;46911;32.650;-16.902;2023-02-13T19:42:16;101928.47;;;16.56;77.52
61026;BME280;46911;32.650;-16.902;2023-02-13T19:44:18;101928.06;;;16.50;77.79
61026;BME280;46911;32.650;-16.902;2023-02-13T19:46:25;101928.41;;;16.45;77.73
61026;BME280;46911;32.650;-16.902;2023-02-13T19:48:26;101908.88;;;16.30;78.12
61026;BME280;46911;32.650;-16.902;2023-02-13T19:50:27;101912.00;;;16.24;78.02
61026;BME280;46911;32.650;-16.902;2023-02-13T19:52:28;101927.72;;;16.30;78.23
61026;BME280;46911;32.650;-16.902;2023-02-13T19:54:29;101943.34;;;16.25;78.45
61026;BME280;46911;32.650;-16.902;2023-02-13T19:56:32;101910.41;;;16.09;78.99
61026;BME280;46911;32.650;-16.902;2023-02-13T19:58:39;101942.69;;;16.21;78.91
61026;BME280;46911;32.650;-16.902;2023-02-13T20:00:40;101920.66;;;16.03;78.61
61026;BME280;46911;32.650;-16.902;2023-02-13T20:02:41;101948.19;;;16.20;78.28
61026;BME280;46911;32.650;-16.902;2023-02-13T20:04:47;101944.97;;;16.15;77.93
61026;BME280;46911;32.650;-16.902;2023-02-13T20:06:50;101944.31;;;16.11;77.55
61026;BME280;46911;32.650;-16.902;2023-02-13T20:08:58;101917.63;;;15.95;77.45
61026;BME280;46911;32.650;-16.902;2023-02-13T20:10:59;101941.75;;;16.10;77.18
61026;BME280;46911;32.650;-16.902;2023-02-13T20:13:00;101932.16;;;16.05;76.63
61026;BME280;46911;32.650;-16.902;2023-02-13T20:15:03;101926.78;;;16.05;76.16
61026;BME280;46911;32.650;-16.902;2023-02-13T20:17:06;101930.25;;;16.08;75.01
61026;BME280;46911;32.650;-16.902;2023-02-13T20:19:08;101922.81;;;15.98;74.49
61026;BME280;46911;32.650;-16.902;2023-02-13T20:21:16;101908.53;;;15.85;74.63
61026;BME280;46911;32.650;-16.902;2023-02-13T20:23:17;101942.41;;;16.00;74.62
61026;BME280;46911;32.650;-16.902;2023-02-13T20:25:22;101931.88;;;15.84;74.40
61026;BME280;46911;32.650;-16.902;2023-02-13T20:27:28;101957.28;;;15.93;74.01
61026;BME280;46911;32.650;-16.902;2023-02-13T20:29:32;101936.78;;;15.78;73.72
61026;BME280;46911;32.650;-16.902;2023-02-13T20:31:35;101954.28;;;15.85;73.91
61026;BME280;46911;32.650;-16.902;2023-02-13T20:33:41;101939.94;;;15.71;73.36
61026;BME280;46911;32.650;-16.902;2023-02-13T20:35:44;101966.25;;;15.79;73.26
61026;BME280;46911;32.650;-16.902;2023-02-13T20:37:47;101952.19;;;15.76;73.12
61026;BME280;46911;32.650;-16.902;2023-02-13T20:39:48;101959.38;;;15.75;72.70
61026;BME280;46911;32.650;-16.902;2023-02-13T20:41:51;101959.50;;;15.73;73.01
61026;BME280;46911;32.650;-16.902;2023-02-13T20:43:59;101963.06;;;15.74;72.98
61026;BME280;46911;32.650;-16.902;2023-02-13T20:46:00;101959.06;;;15.67;72.39
61026;BME280;46911;32.650;-16.902;2023-02-13T20:48:03;101930.03;;;15.46;72.48
61026;BME280;46911;32.650;-16.902;2023-02-13T20:50:08;101967.66;;;15.59;72.46
61026;BME280;46911;32.650;-16.902;2023-02-13T20:52:11;101967.66;;;15.59;72.63
61026;BME280;46911;32.650;-16.902;2023-02-13T20:54:15;101928.06;;;15.35;72.63
61026;BME280;46911;32.650;-16.902;2023-02-13T20:56:20;101940.22;;;15.41;72.37
61026;BME280;46911;32.650;-16.902;2023-02-13T20:58:21;101982.09;;;15.58;71.67
61026;BME280;46911;32.650;-16.902;2023-02-13T21:00:22;101954.34;;;15.45;71.59
61026;BME280;46911;32.650;-16.902;2023-02-13T21:02:23;101968.00;;;15.54;71.37
61026;BME280;46911;32.650;-16.902;2023-02-13T21:04:26;101973.47;;;15.53;71.15
61026;BME280;46911;32.650;-16.902;2023-02-13T21:06:31;101951.28;;;15.36;70.51
61026;BME280;46911;32.650;-16.902;2023-02-13T21:08:35;101963.03;;;15.35;69.93
61026;BME280;46911;32.650;-16.902;2023-02-13T21:10:42;101984.00;;;15.43;69.91
61026;BME280;46911;32.650;-16.902;2023-02-13T21:12:45;101976.03;;;15.42;69.47
61026;BME280;46911;32.650;-16.902;2023-02-13T21:14:46;101989.38;;;15.43;69.07
61026;BME280;46911;32.650;-16.902;2023-02-13T21:16:49;101962.78;;;15.26;68.62
61026;BME280;46911;32.650;-16.902;2023-02-13T21:18:56;101959.25;;;15.25;68.30
61026;BME280;46911;32.650;-16.902;2023-02-13T21:20:57;101962.16;;;15.22;68.30
61026;BME280;46911;32.650;-16.902;2023-02-13T21:22:57;101990.88;;;15.34;67.85
61026;BME280;46911;32.650;-16.902;2023-02-13T21:24:59;101992.78;;;15.32;67.86
61026;BME280;46911;32.650;-16.902;2023-02-13T21:27:00;101994.84;;;15.29;67.97
61026;BME280;46911;32.650;-16.902;2023-02-13T21:29:00;101954.34;;;15.04;67.02
61026;BME280;46911;32.650;-16.902;2023-02-13T21:31:11;101959.41;;;15.09;67.17
61026;BME280;46911;32.650;-16.902;2023-02-13T21:33:16;101990.44;;;15.28;66.32
61026;BME280;46911;32.650;-16.902;2023-02-13T21:35:21;101972.53;;;15.14;66.16
61026;BME280;46911;32.650;-16.902;2023-02-13T21:37:22;101972.97;;;15.07;66.33
61026;BME280;46911;32.650;-16.902;2023-02-13T21:39:23;101990.09;;;15.19;66.72
61026;BME280;46911;32.650;-16.902;2023-02-13T21:41:24;101990.19;;;15.18;66.88
61026;BME280;46911;32.650;-16.902;2023-02-13T21:43:28;101996.41;;;15.18;67.07
61026;BME280;46911;32.650;-16.902;2023-02-13T21:45:28;101970.88;;;14.98;66.26
61026;BME280;46911;32.650;-16.902;2023-02-13T21:47:32;101995.19;;;15.10;66.46
61026;BME280;46911;32.650;-16.902;2023-02-13T21:49:33;101975.94;;;15.03;65.56
61026;BME280;46911;32.650;-16.902;2023-02-13T21:51:37;102002.53;;;15.20;65.25
61026;BME280;46911;32.650;-16.902;2023-02-13T21:53:39;102011.69;;;15.18;65.13
61026;BME280;46911;32.650;-16.902;2023-02-13T21:55:40;102006.31;;;15.18;65.34
61026;BME280;46911;32.650;-16.902;2023-02-13T21:57:41;101989.38;;;15.03;65.17
61026;BME280;46911;32.650;-16.902;2023-02-13T21:59:42;102011.13;;;15.13;65.63
61026;BME280;46911;32.650;-16.902;2023-02-13T22:01:49;102012.09;;;15.12;65.66
61026;BME280;46911;32.650;-16.902;2023-02-13T22:03:50;102021.69;;;15.16;64.91
61026;BME280;46911;32.650;-16.902;2023-02-13T22:05:54;102018.22;;;15.14;65.01
61026;BME280;46911;32.650;-16.902;2023-02-13T22:07:55;102000.44;;;14.98;65.45
61026;BME280;46911;32.650;-16.902;2023-02-13T22:10:13;102001.28;;;14.99;65.70
61026;BME280;46911;32.650;-16.902;2023-02-13T22:12:16;102023.25;;;15.05;65.71
61026;BME280;46911;32.650;-16.902;2023-02-13T22:14:21;102026.50;;;15.11;65.74
61026;BME280;46911;32.650;-16.902;2023-02-13T22:16:23;102010.22;;;14.99;65.95
61026;BME280;46911;32.650;-16.902;2023-02-13T22:18:26;102003.97;;;14.99;65.39